createdAt,value
2023-04-02T00:00:48.415Z,9.667984
2023-04-02T00:01:48.451Z,9.668064
2023-04-02T00:02:49.463Z,9.668062
2023-04-02T00:03:48.384Z,9.667964
2023-04-02T00:04:48.422Z,9.667891
2023-04-02T00:05:48.391Z,9.667843
2023-04-02T00:06:48.389Z,9.667900
2023-04-02T00:07:48.330Z,9.668051
2023-04-02T00:08:48.329Z,9.667998
2023-04-02T00:09:49.232Z,9.667920
2023-04-02T00:10:48.345Z,9.668041
2023-04-02T00:11:48.308Z,9.668044
2023-04-02T00:12:48.300Z,9.668034
2023-04-02T00:13:48.302Z,9.668031
2023-04-02T00:14:48.829Z,9.668027
2023-04-02T00:15:48.855Z,9.667962
2023-04-02T00:16:48.446Z,9.667950
2023-04-02T00:17:48.364Z,9.668044
2023-04-02T00:18:48.279Z,9.668092
2023-04-02T00:19:49.241Z,9.667990
2023-04-02T00:20:48.243Z,9.668061
2023-04-02T00:21:48.265Z,9.668062
2023-04-02T00:22:48.227Z,9.667974
2023-04-02T00:23:48.351Z,9.668049
2023-04-02T00:24:48.260Z,9.668039
2023-04-02T00:25:48.931Z,9.668010
2023-04-02T00:26:48.339Z,9.668034
2023-04-02T00:27:48.249Z,9.668043
2023-04-02T00:28:48.173Z,9.667999
2023-04-02T00:29:48.168Z,9.668007
2023-04-02T00:30:48.161Z,9.667973
2023-04-02T00:31:48.206Z,9.667938
2023-04-02T00:32:48.366Z,9.667945
2023-04-02T00:33:48.170Z,9.667948
2023-04-02T00:34:48.153Z,9.668035
2023-04-02T00:35:48.702Z,9.667969
2023-04-02T00:36:48.335Z,9.667923
2023-04-02T00:37:48.258Z,9.667958
2023-04-02T00:38:48.779Z,9.667963
2023-04-02T00:39:48.097Z,9.667980
2023-04-02T00:40:48.084Z,9.667968
2023-04-02T00:41:48.101Z,9.667985
2023-04-02T00:42:48.188Z,9.667981
2023-04-02T00:43:48.203Z,9.668024
2023-04-02T00:44:48.056Z,9.668010
2023-04-02T00:45:48.093Z,9.668015
2023-04-02T00:46:48.081Z,9.668016
2023-04-02T00:47:48.356Z,9.668058
2023-04-02T00:48:48.009Z,9.668044
2023-04-02T00:49:49.107Z,9.668030
2023-04-02T00:50:48.119Z,9.668062
2023-04-02T00:51:48.020Z,9.668061
2023-04-02T00:52:48.106Z,9.668097
2023-04-02T00:53:48.140Z,9.668076
2023-04-02T00:54:48.049Z,9.668049
2023-04-02T00:55:47.970Z,9.668043
2023-04-02T00:56:47.986Z,9.668092
2023-04-02T00:57:48.078Z,9.668033
2023-04-02T00:58:47.991Z,9.668059
2023-04-02T00:59:47.951Z,9.668042
2023-04-02T01:00:47.947Z,9.668062
2023-04-02T01:01:48.044Z,9.668072
2023-04-02T01:02:47.947Z,9.668032
2023-04-02T01:03:47.996Z,9.668027
2023-04-02T01:04:47.904Z,9.667997
2023-04-02T01:05:47.908Z,9.668041
2023-04-02T01:06:47.894Z,9.668018
2023-04-02T01:07:47.876Z,9.668078
2023-04-02T01:08:47.909Z,9.668042
2023-04-02T01:09:47.857Z,9.668017
2023-04-02T01:10:48.907Z,9.668013
2023-04-02T01:11:47.863Z,9.668036
2023-04-02T01:12:47.859Z,9.667994
2023-04-02T01:13:47.829Z,9.668023
2023-04-02T01:14:47.844Z,9.667997
2023-04-02T01:15:48.777Z,9.668016
2023-04-02T01:16:47.799Z,9.667969
2023-04-02T01:17:47.836Z,9.668024
2023-04-02T01:18:47.799Z,9.668033
2023-04-02T01:19:47.817Z,9.668013
2023-04-02T01:20:47.797Z,9.667982
2023-04-02T01:21:47.763Z,9.668063
2023-04-02T01:22:47.808Z,9.667991
2023-04-02T01:23:47.746Z,9.667983
2023-04-02T01:24:47.831Z,9.668025
2023-04-02T01:25:47.775Z,9.667989
2023-04-02T01:26:47.745Z,9.667997
2023-04-02T01:27:47.768Z,9.667992
2023-04-02T01:28:47.739Z,9.668048
2023-04-02T01:29:47.785Z,9.667994
2023-04-02T01:30:48.565Z,9.668030
2023-04-02T01:31:47.793Z,9.668011
2023-04-02T01:32:47.727Z,9.667994
2023-04-02T01:33:47.786Z,9.667990
2023-04-02T01:34:47.667Z,9.668036
2023-04-02T01:35:47.688Z,9.667983
2023-04-02T01:36:47.663Z,9.668065
2023-04-02T01:37:47.649Z,9.668000
2023-04-02T01:38:47.652Z,9.667995
2023-04-02T01:39:47.724Z,9.668013
2023-04-02T01:40:47.699Z,9.668005
2023-04-02T01:41:47.657Z,9.668019
2023-04-02T01:42:47.653Z,9.668023
2023-04-02T01:43:48.274Z,9.668054
2023-04-02T01:44:47.613Z,9.668041
2023-04-02T01:45:47.613Z,9.668005
2023-04-02T01:46:47.680Z,9.668013
2023-04-02T01:47:47.654Z,9.668002
2023-04-02T01:48:47.562Z,9.668029
2023-04-02T01:49:47.587Z,9.668026
2023-04-02T01:50:47.577Z,9.668001
2023-04-02T01:51:47.534Z,9.668015
2023-04-02T01:52:47.553Z,9.668039
2023-04-02T01:53:47.539Z,9.667990
2023-04-02T01:54:47.544Z,9.668046
2023-04-02T01:55:47.509Z,9.668035
2023-04-02T01:56:47.573Z,9.668013
2023-04-02T01:57:47.553Z,9.668036
2023-04-02T01:58:47.527Z,9.668002
2023-04-02T01:59:47.469Z,9.668023
2023-04-02T02:00:48.683Z,9.668031
2023-04-02T02:01:47.504Z,9.668012
2023-04-02T02:02:47.488Z,9.668008
2023-04-02T02:03:47.501Z,9.668027
2023-04-02T02:04:47.481Z,9.668014
2023-04-02T02:05:47.429Z,9.668047
2023-04-02T02:06:48.330Z,9.667997
2023-04-02T02:07:47.439Z,9.668059
2023-04-02T02:08:47.461Z,9.668080
2023-04-02T02:09:47.522Z,9.668004
2023-04-02T02:10:47.415Z,9.667988
2023-04-02T02:11:48.240Z,9.667965
2023-04-02T02:12:47.385Z,9.667983
2023-04-02T02:13:47.438Z,9.668068
2023-04-02T02:14:47.449Z,9.668059
2023-04-02T02:15:47.375Z,9.668019
2023-04-02T02:16:47.394Z,9.668056
2023-04-02T02:17:47.368Z,9.668054
2023-04-02T02:18:47.387Z,9.668041
2023-04-02T02:19:47.349Z,9.668017
2023-04-02T02:20:47.360Z,9.668029
2023-04-02T02:21:47.326Z,9.668048
2023-04-02T02:22:47.298Z,9.668057
2023-04-02T02:23:47.336Z,9.668020
2023-04-02T02:24:47.323Z,9.668043
2023-04-02T02:25:47.286Z,9.668058
2023-04-02T02:26:47.323Z,9.668027
2023-04-02T02:27:47.265Z,9.668055
2023-04-02T02:28:47.264Z,9.668033
2023-04-02T02:29:48.196Z,9.668015
2023-04-02T02:30:47.279Z,9.668064
2023-04-02T02:31:47.273Z,9.668058
2023-04-02T02:32:47.293Z,9.668033
2023-04-02T02:33:47.288Z,9.668035
2023-04-02T02:34:47.285Z,9.668071
2023-04-02T02:35:47.451Z,9.668036
2023-04-02T02:36:47.228Z,9.668058
2023-04-02T02:37:47.186Z,9.668093
2023-04-02T02:38:47.224Z,9.668094
2023-04-02T02:39:47.451Z,9.668062
2023-04-02T02:40:47.219Z,9.668056
2023-04-02T02:41:47.836Z,9.668052
2023-04-02T02:42:47.168Z,9.668068
2023-04-02T02:43:47.174Z,9.668069
2023-04-02T02:44:47.147Z,9.668110
2023-04-02T02:45:47.192Z,9.668080
2023-04-02T02:46:47.198Z,9.668034
2023-04-02T02:47:47.178Z,9.668014
2023-04-02T02:48:47.117Z,9.668010
2023-04-02T02:49:48.141Z,9.668028
2023-04-02T02:50:47.098Z,9.668017
2023-04-02T02:51:47.141Z,9.668044
2023-04-02T02:52:47.275Z,9.668066
2023-04-02T02:53:47.141Z,9.668061
2023-04-02T02:54:47.086Z,9.668034
2023-04-02T02:55:47.065Z,9.668065
2023-04-02T02:56:47.113Z,9.668058
2023-04-02T02:57:47.223Z,9.667982
2023-04-02T02:58:47.064Z,9.668011
2023-04-02T02:59:47.036Z,9.668068
2023-04-02T03:00:47.061Z,9.668040
2023-04-02T03:01:47.118Z,9.668009
2023-04-02T03:02:47.158Z,9.668033
2023-04-02T03:03:47.428Z,9.668059
2023-04-02T03:04:47.005Z,9.668012
2023-04-02T03:05:47.001Z,9.668058
2023-04-02T03:06:46.985Z,9.668035
2023-04-02T03:07:47.743Z,9.668043
2023-04-02T03:08:47.014Z,9.668034
2023-04-02T03:09:46.996Z,9.668072
2023-04-02T03:10:46.965Z,9.668079
2023-04-02T03:11:47.080Z,9.668107
2023-04-02T03:12:46.991Z,9.668019
2023-04-02T03:13:46.969Z,9.668014
2023-04-02T03:14:46.938Z,9.668081
2023-04-02T03:15:47.004Z,9.668061
2023-04-02T03:16:46.923Z,9.668034
2023-04-02T03:17:47.028Z,9.668014
2023-04-02T03:18:46.905Z,9.668009
2023-04-02T03:19:46.912Z,9.668002
2023-04-02T03:20:47.889Z,9.667982
2023-04-02T03:21:46.895Z,9.667983
2023-04-02T03:22:46.891Z,9.668009
2023-04-02T03:23:46.868Z,9.668017
2023-04-02T03:24:46.913Z,9.668032
2023-04-02T03:25:46.992Z,9.668007
2023-04-02T03:26:46.844Z,9.668010
2023-04-02T03:27:46.826Z,9.668025
2023-04-02T03:28:46.830Z,9.667994
2023-04-02T03:29:46.807Z,9.668011
2023-04-02T03:30:47.386Z,9.668043
2023-04-02T03:31:46.949Z,9.668030
2023-04-02T03:32:46.861Z,9.668037
2023-04-02T03:33:46.822Z,9.668048
2023-04-02T03:34:46.779Z,9.668025
2023-04-02T03:35:47.057Z,9.668009
2023-04-02T03:36:46.818Z,9.667994
2023-04-02T03:37:46.792Z,9.667989
2023-04-02T03:38:46.839Z,9.667968
2023-04-02T03:39:46.744Z,9.668000
2023-04-02T03:40:46.744Z,9.667951
2023-04-02T03:41:46.792Z,9.667963
2023-04-02T03:42:46.765Z,9.668012
2023-04-02T03:43:46.709Z,9.668035
2023-04-02T03:44:46.734Z,9.667999
2023-04-02T03:45:46.718Z,9.667984
2023-04-02T03:46:47.546Z,9.667951
2023-04-02T04:07:56.849Z,9.667914
2023-04-02T04:08:56.793Z,9.667936
2023-04-02T04:09:56.781Z,9.668004
2023-04-02T04:10:57.380Z,9.667913
2023-04-02T04:11:57.320Z,9.667867
2023-04-02T04:12:56.841Z,9.668058
2023-04-02T04:13:57.750Z,9.668048
2023-04-02T04:14:56.771Z,9.668076
2023-04-02T04:15:57.603Z,9.668037
2023-04-02T04:16:56.853Z,9.668036
2023-04-02T04:17:57.773Z,9.668056
2023-04-02T04:18:56.795Z,9.668056
2023-04-02T04:19:56.722Z,9.668024
2023-04-02T04:20:56.939Z,9.668037
2023-04-02T04:21:57.330Z,9.668029
2023-04-02T04:22:56.700Z,9.668017
2023-04-02T04:23:56.665Z,9.667995
2023-04-02T04:24:57.797Z,9.667974
2023-04-02T04:25:56.669Z,9.667975
2023-04-02T04:26:56.675Z,9.668005
2023-04-02T04:27:56.681Z,9.668023
2023-04-02T04:28:56.677Z,9.668027
2023-04-02T04:29:56.701Z,9.668015
2023-04-02T04:30:56.622Z,9.668012
2023-04-02T04:31:56.655Z,9.668006
2023-04-02T04:32:56.664Z,9.668015
2023-04-02T04:33:57.177Z,9.668020
2023-04-02T04:34:56.644Z,9.667994
2023-04-02T04:35:56.658Z,9.668006
2023-04-02T04:36:56.619Z,9.668015
2023-04-02T04:37:56.579Z,9.668016
2023-04-02T04:38:57.293Z,9.668035
2023-04-02T04:39:56.597Z,9.668000
2023-04-02T04:40:56.598Z,9.668004
2023-04-02T04:41:56.556Z,9.668032
2023-04-02T04:42:56.638Z,9.668032
2023-04-02T04:43:56.734Z,9.668032
2023-04-02T04:44:56.527Z,9.667982
2023-04-02T04:45:57.329Z,9.667958
2023-04-02T04:46:56.507Z,9.667952
2023-04-02T04:47:56.562Z,9.668005
2023-04-02T04:48:56.865Z,9.667962
2023-04-02T04:49:57.280Z,9.667973
2023-04-02T04:50:56.503Z,9.667976
2023-04-02T04:51:56.523Z,9.667956
2023-04-02T04:52:56.455Z,9.668005
2023-04-02T04:53:56.501Z,9.668002
2023-04-02T04:54:57.115Z,9.667976
2023-04-02T04:55:59.689Z,9.667947
2023-04-02T04:56:57.433Z,9.667973
2023-04-02T04:57:56.471Z,9.667930
2023-04-02T04:58:56.520Z,9.667954
2023-04-02T04:59:56.434Z,9.668018
2023-04-02T05:00:56.471Z,9.667988
2023-04-02T05:01:56.478Z,9.668067
2023-04-02T05:02:56.427Z,9.668055
2023-04-02T05:03:56.420Z,9.668020
2023-04-02T05:04:56.469Z,9.668036
2023-04-02T05:05:56.359Z,9.668037
2023-04-02T05:06:56.417Z,9.667969
2023-04-02T05:07:57.887Z,9.667968
2023-04-02T05:08:56.401Z,9.667985
2023-04-02T05:09:56.377Z,9.667983
2023-04-02T05:10:56.325Z,9.667958
2023-04-02T05:11:56.562Z,9.667972
2023-04-02T05:12:56.314Z,9.667985
2023-04-02T05:13:56.289Z,9.667957
2023-04-02T05:14:56.285Z,9.667972
2023-04-02T05:15:56.366Z,9.667996
2023-04-02T05:16:56.284Z,9.667941
2023-04-02T05:17:56.633Z,9.667965
2023-04-02T05:18:56.276Z,9.667972
2023-04-02T05:19:56.285Z,9.667992
2023-04-02T05:20:56.238Z,9.667989
2023-04-02T05:21:56.283Z,9.667986
2023-04-02T05:22:57.110Z,9.667987
2023-04-02T05:23:56.240Z,9.668002
2023-04-02T05:24:56.224Z,9.667988
2023-04-02T05:25:56.236Z,9.667990
2023-04-02T05:26:56.228Z,9.667957
2023-04-02T05:27:56.199Z,9.667953
2023-04-02T05:28:56.343Z,9.667936
2023-04-02T05:29:56.267Z,9.667943
2023-04-02T05:30:56.185Z,9.667960
2023-04-02T05:31:56.178Z,9.667994
2023-04-02T05:32:56.232Z,9.668009
2023-04-02T05:33:56.175Z,9.667986
2023-04-02T05:34:56.334Z,9.667955
2023-04-02T05:35:56.226Z,9.667903
2023-04-02T05:36:56.155Z,9.667981
2023-04-02T05:37:56.173Z,9.667963
2023-04-02T05:38:56.116Z,9.667954
2023-04-02T05:39:56.338Z,9.667972
2023-04-02T05:40:56.103Z,9.667949
2023-04-02T05:41:56.089Z,9.667998
2023-04-02T05:42:56.126Z,9.667959
2023-04-02T05:43:56.099Z,9.667943
2023-04-02T05:44:56.080Z,9.667987
2023-04-02T05:45:56.817Z,9.667926
2023-04-02T05:46:56.104Z,9.667912
2023-04-02T05:47:56.054Z,9.667948
2023-04-02T05:48:56.034Z,9.667949
2023-04-02T05:49:56.039Z,9.667914
2023-04-02T05:50:56.026Z,9.667951
2023-04-02T05:51:57.504Z,9.667927
2023-04-02T05:52:57.011Z,9.667917
2023-04-02T05:53:56.041Z,9.667923
2023-04-02T05:54:56.004Z,9.667966
2023-04-02T05:55:55.979Z,9.667912
2023-04-02T05:56:55.990Z,9.667924
2023-04-02T05:58:13.375Z,9.667907
2023-04-02T05:58:58.194Z,9.667856
2023-04-02T05:59:55.971Z,9.667887
2023-04-02T06:00:56.054Z,9.667913
2023-04-02T06:01:56.016Z,9.667935
2023-04-02T06:02:56.025Z,9.667979
2023-04-02T06:03:56.031Z,9.667927
2023-04-02T06:04:55.956Z,9.667888
2023-04-02T06:05:55.977Z,9.667906
2023-04-02T06:06:55.971Z,9.667928
2023-04-02T06:07:56.611Z,9.667923
2023-04-02T06:08:55.898Z,9.667886
2023-04-02T06:09:55.876Z,9.667933
2023-04-02T06:10:55.882Z,9.667915
2023-04-02T06:11:55.918Z,9.667925
2023-04-02T06:12:55.859Z,9.667980
2023-04-02T06:13:56.774Z,9.667967
2023-04-02T06:14:55.871Z,9.667936
2023-04-02T06:15:55.837Z,9.667935
2023-04-02T06:16:55.872Z,9.667995
2023-04-02T06:17:55.965Z,9.667956
2023-04-02T06:18:55.810Z,9.667905
2023-04-02T06:19:55.800Z,9.667910
2023-04-02T06:20:55.862Z,9.667988
2023-04-02T06:21:55.805Z,9.667974
2023-04-02T06:22:55.809Z,9.667961
2023-04-02T06:23:55.769Z,9.667975
2023-04-02T06:24:55.778Z,9.668056
2023-04-02T06:25:55.776Z,9.668043
2023-04-02T06:26:55.745Z,9.668015
2023-04-02T06:27:55.789Z,9.668011
2023-04-02T06:28:55.767Z,9.668002
2023-04-02T06:29:55.744Z,9.668052
2023-04-02T06:30:56.360Z,9.668076
2023-04-02T06:31:55.740Z,9.668037
2023-04-02T06:32:55.852Z,9.668040
2023-04-02T06:33:55.694Z,9.668045
2023-04-02T06:34:55.704Z,9.668022
2023-04-02T06:35:56.277Z,9.668010
2023-04-02T06:36:56.348Z,9.668039
2023-04-02T06:37:55.687Z,9.668024
2023-04-02T06:38:55.686Z,9.667988
2023-04-02T06:39:55.703Z,9.667980
2023-04-02T06:40:58.219Z,9.668027
2023-04-02T06:41:56.299Z,9.667994
2023-04-02T06:42:55.632Z,9.667980
2023-04-02T06:43:55.646Z,9.667985
2023-04-02T06:44:55.623Z,9.667996
2023-04-02T06:45:55.679Z,9.667953
2023-04-02T06:46:55.625Z,9.667992
2023-04-02T06:47:55.635Z,9.668008
2023-04-02T06:48:56.296Z,9.667953
2023-04-02T06:49:55.886Z,9.667951
2023-04-02T06:50:55.592Z,9.667983
2023-04-02T06:51:55.570Z,9.668015
2023-04-02T06:52:55.592Z,9.667989
2023-04-02T06:53:56.208Z,9.667997
2023-04-02T06:54:55.563Z,9.668006
2023-04-02T06:55:55.564Z,9.667981
2023-04-02T06:56:55.576Z,9.667972
2023-04-02T06:57:55.523Z,9.668027
2023-04-02T06:58:55.519Z,9.667984
2023-04-02T06:59:55.491Z,9.667944
2023-04-02T07:00:55.523Z,9.667947
2023-04-02T07:01:57.857Z,9.667940
2023-04-02T07:02:55.545Z,9.667984
2023-04-02T07:03:59.369Z,9.667967
2023-04-02T07:04:55.620Z,9.667952
2023-04-02T07:05:55.530Z,9.667988
2023-04-02T07:06:55.888Z,9.667902
2023-04-02T07:07:55.498Z,9.667895
2023-04-02T07:08:55.439Z,9.667914
2023-04-02T07:09:57.628Z,9.667890
2023-04-02T07:10:55.490Z,9.667907
2023-04-02T07:11:56.344Z,9.667909
2023-04-02T07:12:55.530Z,9.667988
2023-04-02T07:13:55.444Z,9.668012
2023-04-02T07:14:55.575Z,9.667951
2023-04-02T07:15:57.240Z,9.667965
2023-04-02T07:16:59.380Z,9.668022
2023-04-02T07:17:57.200Z,9.668006
2023-04-02T07:18:55.873Z,9.667988
2023-04-02T07:19:55.427Z,9.667966
2023-04-02T07:20:55.388Z,9.668024
2023-04-02T07:21:56.122Z,9.668019
2023-04-02T07:22:55.404Z,9.667999
2023-04-02T07:23:57.647Z,9.667949
2023-04-02T07:24:57.689Z,9.668009
2023-04-02T07:25:57.258Z,9.668006
2023-04-02T07:26:57.268Z,9.668033
2023-04-02T07:27:55.328Z,9.668057
2023-04-02T07:29:00.289Z,9.668013
2023-04-02T07:29:55.308Z,9.667955
2023-04-02T07:30:58.214Z,9.667978
2023-04-02T07:31:56.920Z,9.668011
2023-04-02T07:32:55.322Z,9.667969
2023-04-02T07:33:55.305Z,9.667883
2023-04-02T07:34:56.221Z,9.667846
2023-04-02T07:35:55.294Z,9.667916
2023-04-02T07:36:55.233Z,9.667912
2023-04-02T07:37:55.864Z,9.667997
2023-04-02T07:38:55.295Z,9.667970
2023-04-02T07:39:55.187Z,9.667993
2023-04-02T07:40:55.244Z,9.668014
2023-04-02T07:41:55.157Z,9.667993
2023-04-02T07:42:55.216Z,9.667943
2023-04-02T07:43:55.333Z,9.667933
2023-04-02T07:44:55.371Z,9.668010
2023-04-02T07:45:55.140Z,9.668020
2023-04-02T07:46:55.160Z,9.667994
2023-04-02T07:47:55.286Z,9.668058
2023-04-02T07:48:55.121Z,9.668009
2023-04-02T07:49:55.360Z,9.667956
2023-04-02T07:50:55.144Z,9.667905
2023-04-02T07:51:55.124Z,9.667915
2023-04-02T07:52:55.102Z,9.667974
2023-04-02T07:53:55.104Z,9.668029
2023-04-02T07:54:55.097Z,9.668014
2023-04-02T07:55:55.141Z,9.667969
2023-04-02T07:56:55.076Z,9.668000
2023-04-02T07:57:55.035Z,9.668017
2023-04-02T07:58:55.092Z,9.668024
2023-04-02T07:59:55.631Z,9.668057
2023-04-02T08:00:55.045Z,9.668029
2023-04-02T08:01:55.191Z,9.667993
2023-04-02T08:02:55.236Z,9.667991
2023-04-02T08:03:55.108Z,9.667967
2023-04-02T08:04:55.006Z,9.668029
2023-04-02T08:05:55.830Z,9.667970
2023-04-02T08:06:56.357Z,9.667933
2023-04-02T08:07:55.005Z,9.667899
2023-04-02T08:08:54.982Z,9.667950
2023-04-02T08:09:54.973Z,9.668048
2023-04-02T08:10:55.056Z,9.667945
2023-04-02T08:11:54.971Z,9.667941
2023-04-02T08:12:55.799Z,9.667910
2023-04-02T08:13:54.928Z,9.667966
2023-04-02T08:14:54.937Z,9.667967
2023-04-02T08:15:54.920Z,9.667995
2023-04-02T08:16:55.003Z,9.668008
2023-04-02T08:17:55.172Z,9.667994
2023-04-02T08:18:54.920Z,9.667991
2023-04-02T08:19:55.435Z,9.667994
2023-04-02T08:20:55.915Z,9.667960
2023-04-02T08:21:54.996Z,9.667986
2023-04-02T08:22:55.907Z,9.667963
2023-04-02T08:23:54.884Z,9.667995
2023-04-02T08:24:54.889Z,9.667996
2023-04-02T08:25:54.916Z,9.668018
2023-04-02T08:26:54.861Z,9.667974
2023-04-02T08:27:54.879Z,9.668006
2023-04-02T08:28:54.854Z,9.667974
2023-04-02T08:29:54.852Z,9.667970
2023-04-02T08:30:54.860Z,9.668009
2023-04-02T08:31:54.834Z,9.668025
2023-04-02T08:32:54.862Z,9.667997
2023-04-02T08:33:55.371Z,9.667959
2023-04-02T08:34:54.808Z,9.667966
2023-04-02T08:35:54.839Z,9.667959
2023-04-02T08:36:54.772Z,9.667985
2023-04-02T08:37:54.807Z,9.667970
2023-04-02T08:38:54.809Z,9.667973
2023-04-02T08:39:54.833Z,9.667984
2023-04-02T08:40:54.760Z,9.667994
2023-04-02T08:41:55.032Z,9.667987
2023-04-02T08:42:54.807Z,9.667981
2023-04-02T08:43:54.771Z,9.667945
2023-04-02T08:44:55.071Z,9.667953
2023-04-02T08:45:54.838Z,9.667949
2023-04-02T08:46:54.702Z,9.667933
2023-04-02T08:47:54.805Z,9.667937
2023-04-02T08:48:54.801Z,9.667977
2023-04-02T08:49:54.640Z,9.667980
2023-04-02T08:50:54.894Z,9.667973
2023-04-02T08:51:54.700Z,9.667994
2023-04-02T08:52:54.684Z,9.667999
2023-04-02T08:53:55.172Z,9.668002
2023-04-02T08:54:54.658Z,9.667977
2023-04-02T08:55:54.855Z,9.667975
2023-04-02T08:56:54.649Z,9.667990
2023-04-02T08:57:54.654Z,9.667994
2023-04-02T08:58:54.656Z,9.667989
2023-04-02T08:59:54.634Z,9.667941
2023-04-02T09:00:54.591Z,9.667938
2023-04-02T09:01:55.408Z,9.667984
2023-04-02T09:02:54.630Z,9.667922
2023-04-02T09:03:54.598Z,9.667967
2023-04-02T09:04:54.622Z,9.667991
2023-04-02T09:05:54.551Z,9.667972
2023-04-02T09:06:54.572Z,9.667953
2023-04-02T09:07:54.580Z,9.667986
2023-04-02T09:08:54.580Z,9.668019
2023-04-02T09:09:54.530Z,9.668033
2023-04-02T09:10:54.553Z,9.668037
2023-04-02T09:11:54.519Z,9.668009
2023-04-02T09:12:54.503Z,9.668025
2023-04-02T09:13:54.569Z,9.668010
2023-04-02T09:14:54.480Z,9.667979
2023-04-02T09:15:54.525Z,9.668034
2023-04-02T09:16:54.526Z,9.668029
2023-04-02T09:17:55.371Z,9.668038
2023-04-02T09:18:54.663Z,9.668040
2023-04-02T09:19:54.447Z,9.668035
2023-04-02T09:20:54.444Z,9.668024
2023-04-02T09:21:54.486Z,9.668010
2023-04-02T09:22:54.429Z,9.668020
2023-04-02T09:23:55.149Z,9.667946
2023-04-02T09:24:54.413Z,9.667979
2023-04-02T09:26:03.666Z,9.667980
2023-04-02T09:26:56.417Z,9.667986
2023-04-02T09:27:54.412Z,9.667981
2023-04-02T09:28:54.438Z,9.668029
2023-04-02T09:29:54.576Z,9.668052
2023-04-02T09:30:54.425Z,9.667993
2023-04-02T09:31:54.428Z,9.668008
2023-04-02T09:32:54.417Z,9.667998
2023-04-02T09:33:54.398Z,9.667972
2023-04-02T09:34:54.352Z,9.668031
2023-04-02T09:35:54.405Z,9.667981
2023-04-02T09:36:54.461Z,9.668020
2023-04-02T09:37:54.336Z,9.668022
2023-04-02T09:38:54.392Z,9.667973
2023-04-02T09:39:54.321Z,9.668044
2023-04-02T09:40:54.302Z,9.668030
2023-04-02T09:42:04.957Z,9.668019
2023-04-02T09:42:56.267Z,9.668057
2023-04-02T09:43:54.272Z,9.667989
2023-04-02T09:44:54.248Z,9.668022
2023-04-02T09:45:54.387Z,9.667967
2023-04-02T09:46:54.917Z,9.668006
2023-04-02T09:47:54.287Z,9.668043
2023-04-02T09:48:54.248Z,9.667992
2023-04-02T09:49:54.258Z,9.668025
2023-04-02T09:50:54.229Z,9.668050
2023-04-02T09:51:54.569Z,9.668040
2023-04-02T09:52:54.226Z,9.668000
2023-04-02T09:53:54.206Z,9.668019
2023-04-02T09:54:54.200Z,9.668028
2023-04-02T09:55:54.183Z,9.667987
2023-04-02T09:56:54.841Z,9.668040
2023-04-02T09:57:54.208Z,9.668018
2023-04-02T09:58:54.193Z,9.668053
2023-04-02T09:59:54.145Z,9.668012
2023-04-02T10:00:54.220Z,9.668005
2023-04-02T10:01:54.127Z,9.668007
2023-04-02T10:02:54.248Z,9.667980
2023-04-02T10:03:54.146Z,9.668026
2023-04-02T10:04:54.223Z,9.668025
2023-04-02T10:05:54.135Z,9.667961
2023-04-02T10:06:54.121Z,9.668025
2023-04-02T10:07:54.088Z,9.668065
2023-04-02T10:08:54.149Z,9.668050
2023-04-02T10:09:54.085Z,9.668018
2023-04-02T10:10:54.091Z,9.668039
2023-04-02T10:11:54.087Z,9.667979
2023-04-02T10:12:54.043Z,9.668052
2023-04-02T10:13:54.072Z,9.668011
2023-04-02T10:14:54.852Z,9.668066
2023-04-02T10:15:54.028Z,9.668052
2023-04-02T10:16:54.058Z,9.668097
2023-04-02T10:17:54.068Z,9.668120
2023-04-02T10:18:53.995Z,9.668076
2023-04-02T10:19:54.651Z,9.668038
2023-04-02T10:20:54.012Z,9.668006
2023-04-02T10:21:54.040Z,9.667982
2023-04-02T10:22:53.964Z,9.667996
2023-04-02T10:23:53.993Z,9.668021
2023-04-02T10:24:53.984Z,9.667974
2023-04-02T10:25:53.933Z,9.668020
2023-04-02T10:26:54.078Z,9.667962
2023-04-02T10:27:53.961Z,9.667997
2023-04-02T10:28:54.909Z,9.667994
2023-04-02T10:29:53.923Z,9.667981
2023-04-02T10:30:54.022Z,9.668051
2023-04-02T10:31:53.991Z,9.668027
2023-04-02T10:32:53.964Z,9.667967
2023-04-02T10:33:53.910Z,9.667995
2023-04-02T10:34:53.901Z,9.668035
2023-04-02T10:35:53.997Z,9.668022
2023-04-02T10:37:30.300Z,9.668015
2023-04-02T10:38:26.840Z,9.667974
2023-04-02T10:39:26.309Z,9.668026
2023-04-02T10:40:26.457Z,9.668021
2023-04-02T10:41:26.853Z,9.668027
2023-04-02T10:42:26.962Z,9.667975
2023-04-02T10:42:53.895Z,9.668014
2023-04-02T10:44:26.646Z,9.667974
2023-04-02T10:44:53.818Z,9.667977
2023-04-02T10:45:53.896Z,9.667987
2023-04-02T10:46:53.856Z,9.667980
2023-04-02T10:47:53.820Z,9.668012
2023-04-02T10:48:53.788Z,9.667998
2023-04-02T10:49:53.848Z,9.667954
2023-04-02T10:50:53.820Z,9.668020
2023-04-02T10:51:53.801Z,9.668028
2023-04-02T10:52:55.501Z,9.668017
2023-04-02T10:53:53.735Z,9.668034
2023-04-02T10:54:53.852Z,9.668036
2023-04-02T10:55:55.069Z,9.668027
2023-04-02T10:56:53.823Z,9.667997
2023-04-02T10:57:53.873Z,9.668030
2023-04-02T10:58:55.561Z,9.668041
2023-04-02T10:59:54.566Z,9.668032
2023-04-02T11:00:55.352Z,9.668023
2023-04-02T11:01:53.839Z,9.668054
2023-04-02T11:02:53.807Z,9.667999
2023-04-02T11:03:53.753Z,9.667997
2023-04-02T11:04:57.071Z,9.667997
2023-04-02T11:05:53.690Z,9.667959
2023-04-02T11:07:07.307Z,9.667994
2023-04-02T11:07:55.672Z,9.668004
2023-04-02T11:08:53.628Z,9.667998
2023-04-02T11:09:53.655Z,9.668062
2023-04-02T11:10:54.574Z,9.668044
2023-04-02T11:11:54.444Z,9.667922
2023-04-02T11:12:53.664Z,9.668006
2023-04-02T11:13:53.693Z,9.667988
2023-04-02T11:14:53.609Z,9.667968
2023-04-02T11:15:55.363Z,9.667883
2023-04-02T11:16:53.588Z,9.667974
2023-04-02T11:17:54.576Z,9.668024
2023-04-02T11:18:53.596Z,9.668003
2023-04-02T11:19:53.565Z,9.668011
2023-04-02T11:20:53.571Z,9.667989
2023-04-02T11:21:59.711Z,9.667985
2023-04-02T11:22:55.570Z,9.668021
2023-04-02T11:23:53.554Z,9.667961
2023-04-02T11:24:53.548Z,9.667995
2023-04-02T11:25:53.496Z,9.668007
2023-04-02T11:26:54.344Z,9.667974
2023-04-02T11:27:54.079Z,9.668047
2023-04-02T11:28:53.586Z,9.668027
2023-04-02T11:29:53.557Z,9.668007
2023-04-02T11:30:53.470Z,9.668026
2023-04-02T11:31:53.515Z,9.668027
2023-04-02T11:32:53.668Z,9.668000
2023-04-02T11:33:53.444Z,9.667998
2023-04-02T11:35:05.056Z,9.668012
2023-04-02T11:35:55.469Z,9.667987
2023-04-02T11:36:53.481Z,9.667972
2023-04-02T11:37:53.430Z,9.668034
2023-04-02T11:38:54.961Z,9.667994
2023-04-02T11:39:53.471Z,9.667967
2023-04-02T11:40:53.423Z,9.667997
2023-04-02T11:41:53.432Z,9.667939
2023-04-02T11:42:53.390Z,9.667923
2023-04-02T11:43:53.410Z,9.668027
2023-04-02T11:44:53.385Z,9.668034
2023-04-02T11:45:53.755Z,9.667976
2023-04-02T11:46:53.444Z,9.667974
2023-04-02T11:47:53.406Z,9.668018
2023-04-02T11:48:53.351Z,9.668028
2023-04-02T11:49:53.338Z,9.668008
2023-04-02T11:50:53.567Z,9.668015
2023-04-02T11:52:02.314Z,9.668006
2023-04-02T11:52:55.342Z,9.667993
2023-04-02T11:53:53.295Z,9.668020
2023-04-02T11:54:53.301Z,9.668015
2023-04-02T11:55:54.085Z,9.667997
2023-04-02T11:56:53.403Z,9.668002
2023-04-02T11:57:53.297Z,9.667971
2023-04-02T11:58:53.281Z,9.667957
2023-04-02T11:59:54.068Z,9.667972
2023-04-02T12:00:53.962Z,9.667996
2023-04-02T12:01:53.313Z,9.668029
2023-04-02T12:02:53.337Z,9.668005
2023-04-02T12:03:53.270Z,9.667997
2023-04-02T12:04:53.252Z,9.667948